Time;durP1;ratioP1;P1;durP2;ratioP2;P2;SDS_P1;SDS_P2;PMS_P1;PMS_P2;Temp;Humidity;BMP_temperature;BMP_pressure;BME280_temperature;BME280_humidity;BME280_pressure;Samples;Min_cycle;Max_cycle;Signal;HPM_P1;HPM_P2
2021/08/16 00:01:12;;;;;;;15.63;3.07;;;17.60;99.90;;;;;;5072347;28;20183;-84
2021/08/16 00:03:38;;;;;;;15.43;3.83;;;17.60;99.90;;;;;;5107016;28;20195;-82
2021/08/16 00:06:04;;;;;;;16.40;3.10;;;17.60;99.90;;;;;;5097629;28;20289;-84
2021/08/16 00:08:30;;;;;;;16.63;3.30;;;17.50;99.90;;;;;;5078181;28;20214;-84
2021/08/16 00:10:55;;;;;;;15.33;3.13;;;17.50;99.90;;;;;;5079672;28;20179;-83
2021/08/16 00:13:24;;;;;;;11.27;2.67;;;17.40;99.90;;;;;;5086939;28;20195;-84
2021/08/16 00:15:51;;;;;;;18.13;3.17;;;17.40;99.90;;;;;;5095509;28;20183;-82
2021/08/16 00:18:17;;;;;;;17.30;2.97;;;17.30;99.90;;;;;;5083406;28;20183;-85
2021/08/16 00:20:43;;;;;;;19.20;3.00;;;17.30;99.90;;;;;;5083743;27;20203;-82
2021/08/16 00:23:09;;;;;;;15.50;2.83;;;17.30;99.90;;;;;;5102662;28;20238;-83
2021/08/16 00:25:34;;;;;;;21.13;3.70;;;17.30;99.90;;;;;;5090935;28;20194;-83
2021/08/16 00:28:00;;;;;;;16.73;2.87;;;17.40;99.90;;;;;;5090459;28;20209;-83
2021/08/16 00:30:26;;;;;;;18.13;3.23;;;17.40;99.90;;;;;;5078828;28;20673;-83
2021/08/16 00:32:52;;;;;;;13.10;2.63;;;17.30;99.90;;;;;;5085265;28;20209;-83
2021/08/16 00:35:17;;;;;;;13.70;2.80;;;17.30;99.90;;;;;;5077097;28;20212;-83
2021/08/16 00:37:45;;;;;;;12.10;2.87;;;17.30;99.90;;;;;;5074924;28;20187;-82
2021/08/16 00:40:12;;;;;;;18.00;3.20;;;17.30;99.90;;;;;;5064808;28;20187;-81
2021/08/16 00:42:39;;;;;;;14.07;2.70;;;17.20;99.90;;;;;;5077693;28;20278;-83
2021/08/16 00:45:07;;;;;;;13.40;2.77;;;17.20;99.90;;;;;;5071730;28;20210;-83
2021/08/16 00:47:34;;;;;;;16.03;3.30;;;17.20;99.90;;;;;;5075488;28;20193;-83
2021/08/16 00:50:00;;;;;;;13.40;2.53;;;17.20;99.90;;;;;;5076649;28;20957;-83
2021/08/16 00:52:29;;;;;;;13.33;2.93;;;17.30;99.90;;;;;;5108688;28;20182;-83
2021/08/16 00:54:56;;;;;;;12.60;2.90;;;17.30;99.90;;;;;;5073900;28;20648;-84
2021/08/16 00:57:23;;;;;;;16.10;2.90;;;17.20;99.90;;;;;;5076236;28;20254;-83
2021/08/16 00:59:49;;;;;;;17.80;3.03;;;17.20;99.90;;;;;;5074619;28;20535;-83
2021/08/16 01:02:15;;;;;;;11.53;3.03;;;17.20;99.90;;;;;;5090184;28;20547;-83
2021/08/16 01:04:41;;;;;;;14.67;2.80;;;17.20;99.90;;;;;;5077997;28;20181;-83
2021/08/16 01:07:07;;;;;;;15.17;3.10;;;17.20;99.90;;;;;;5088262;28;20279;-83
2021/08/16 01:09:33;;;;;;;16.63;3.37;;;17.30;99.90;;;;;;5077448;28;20203;-83
2021/08/16 01:11:59;;;;;;;16.97;3.17;;;17.30;99.90;;;;;;5072160;28;20188;-82
2021/08/16 01:14:25;;;;;;;13.73;2.80;;;17.20;99.90;;;;;;5072852;28;20186;-82
2021/08/16 01:16:51;;;;;;;16.17;2.70;;;17.30;99.90;;;;;;5090326;28;20273;-82
2021/08/16 01:19:21;;;;;;;16.33;3.67;;;17.30;99.90;;;;;;5073825;28;20716;-83
2021/08/16 01:21:48;;;;;;;18.07;3.03;;;17.40;99.90;;;;;;5089853;28;20182;-83
2021/08/16 01:24:15;;;;;;;14.17;2.73;;;17.50;99.90;;;;;;5103180;28;20222;-84
2021/08/16 01:26:41;;;;;;;11.37;2.60;;;17.50;99.90;;;;;;5085321;28;20218;-83
2021/08/16 01:29:21;;;;;;;13.47;3.00;;;17.60;99.90;;;;;;5076686;28;20657;-83
2021/08/16 01:31:47;;;;;;;13.13;2.50;;;17.60;99.90;;;;;;5073923;28;20198;-84
2021/08/16 01:34:13;;;;;;;13.30;2.80;;;17.60;99.90;;;;;;5092962;28;20712;-83
2021/08/16 01:36:41;;;;;;;15.53;2.57;;;17.60;99.90;;;;;;5069909;28;20204;-84
2021/08/16 01:39:08;;;;;;;11.87;2.50;;;17.60;99.90;;;;;;5075100;28;20217;-83
2021/08/16 01:41:35;;;;;;;14.97;2.83;;;17.60;99.90;;;;;;5075642;28;20251;-84
2021/08/16 01:44:00;;;;;;;21.20;3.03;;;17.70;99.90;;;;;;5072399;28;20274;-83
2021/08/16 01:46:26;;;;;;;13.17;2.30;;;17.70;99.90;;;;;;5073827;28;20273;-84
2021/08/16 01:48:53;;;;;;;11.47;2.97;;;17.80;99.90;;;;;;5093182;28;20186;-85
2021/08/16 01:51:19;;;;;;;17.97;3.57;;;17.90;99.90;;;;;;5070759;28;20208;-84
2021/08/16 01:53:44;;;;;;;13.73;2.27;;;17.90;99.90;;;;;;5094641;28;20194;-85
2021/08/16 01:56:10;;;;;;;16.03;2.67;;;17.90;99.90;;;;;;5081483;28;20202;-85
2021/08/16 01:58:36;;;;;;;15.13;2.63;;;17.90;99.90;;;;;;5080699;28;20193;-84
2021/08/16 02:01:02;;;;;;;16.70;2.97;;;17.90;99.90;;;;;;5075687;28;20217;-84
2021/08/16 02:03:28;;;;;;;12.60;2.37;;;18.00;99.90;;;;;;5097515;28;20677;-84
2021/08/16 02:05:54;;;;;;;15.77;2.60;;;18.10;99.90;;;;;;5090188;28;20182;-84
2021/08/16 02:08:19;;;;;;;13.63;2.60;;;18.10;99.90;;;;;;5099856;28;20227;-83
2021/08/16 02:10:45;;;;;;;14.87;2.87;;;18.20;99.90;;;;;;5089613;28;20183;-85
2021/08/16 02:13:11;;;;;;;13.33;2.20;;;18.20;99.90;;;;;;5078901;28;20311;-85
2021/08/16 02:15:38;;;;;;;15.67;2.73;;;18.30;99.90;;;;;;5097661;28;20249;-84
2021/08/16 02:18:05;;;;;;;16.17;2.40;;;18.30;99.90;;;;;;5095390;28;20205;-84
2021/08/16 02:20:30;;;;;;;15.13;2.53;;;18.30;99.90;;;;;;5093172;28;20202;-84
2021/08/16 02:22:56;;;;;;;12.07;2.00;;;18.30;99.90;;;;;;5077130;28;20214;-84
2021/08/16 02:25:22;;;;;;;16.77;2.20;;;18.30;99.90;;;;;;5083312;28;20185;-84
2021/08/16 02:27:49;;;;;;;13.87;2.33;;;18.30;99.90;;;;;;5078045;28;20729;-83
2021/08/16 02:30:17;;;;;;;14.37;2.20;;;18.40;99.90;;;;;;5073382;28;20181;-84
2021/08/16 02:32:44;;;;;;;13.80;2.77;;;18.30;99.90;;;;;;5081543;28;20312;-84
2021/08/16 02:35:11;;;;;;;14.60;2.27;;;18.30;99.90;;;;;;5091544;28;20273;-84
2021/08/16 02:37:37;;;;;;;11.97;2.80;;;18.30;99.90;;;;;;5103999;28;20231;-84
2021/08/16 02:40:04;;;;;;;19.10;2.57;;;18.20;99.90;;;;;;5076152;28;20657;-83
2021/08/16 02:42:30;;;;;;;12.93;2.57;;;18.10;99.90;;;;;;5071318;28;20548;-83
2021/08/16 02:44:56;;;;;;;14.07;2.47;;;17.90;99.90;;;;;;5091674;28;20265;-81
2021/08/16 02:47:22;;;;;;;15.07;2.70;;;17.80;99.90;;;;;;5092184;28;20294;-83
2021/08/16 02:49:51;;;;;;;18.30;2.90;;;17.70;99.90;;;;;;5078352;28;20190;-82
2021/08/16 02:52:17;;;;;;;11.87;2.30;;;17.80;99.90;;;;;;5092665;28;20189;-83
2021/08/16 02:54:46;;;;;;;13.73;2.43;;;17.70;99.90;;;;;;5094811;28;20252;-83
2021/08/16 02:57:13;;;;;;;13.57;2.50;;;17.70;99.90;;;;;;5089319;28;20191;-83
2021/08/16 02:59:41;;;;;;;14.63;2.57;;;17.60;99.90;;;;;;5078715;28;20266;-83
2021/08/16 03:02:10;;;;;;;16.80;2.70;;;17.60;99.90;;;;;;5091155;28;20278;-83
2021/08/16 03:04:36;;;;;;;14.77;2.70;;;17.60;99.90;;;;;;5087317;28;20194;-83
2021/08/16 03:07:03;;;;;;;19.33;3.20;;;17.50;99.90;;;;;;5081523;28;20225;-84
2021/08/16 03:09:29;;;;;;;13.80;2.63;;;17.50;99.90;;;;;;5094829;28;20169;-83
2021/08/16 03:11:55;;;;;;;14.63;2.60;;;17.40;99.90;;;;;;5094603;28;20242;-84
2021/08/16 03:14:21;;;;;;;13.47;2.67;;;17.40;99.90;;;;;;5081148;28;20550;-84
2021/08/16 03:16:47;;;;;;;19.47;3.00;;;17.40;99.90;;;;;;5076199;28;20190;-82
2021/08/16 03:19:13;;;;;;;16.17;3.07;;;17.40;99.90;;;;;;5077334;28;20178;-83
2021/08/16 03:21:39;;;;;;;16.50;2.57;;;17.40;99.90;;;;;;5075552;28;20175;-83
2021/08/16 03:24:05;;;;;;;14.93;2.67;;;17.40;99.90;;;;;;5076843;28;20234;-83
2021/08/16 03:26:31;;;;;;;11.93;2.47;;;17.40;99.90;;;;;;5091543;28;20573;-83
2021/08/16 03:28:57;;;;;;;16.67;3.40;;;17.40;99.90;;;;;;5090627;28;20586;-83
2021/08/16 03:31:23;;;;;;;17.57;2.90;;;17.50;99.90;;;;;;5088964;28;20223;-84
2021/08/16 03:33:49;;;;;;;16.27;3.37;;;17.60;99.90;;;;;;5092532;28;20193;-83
2021/08/16 03:36:15;;;;;;;16.83;2.77;;;17.60;99.90;;;;;;5100158;27;20182;-83
2021/08/16 03:38:40;;;;;;;19.17;3.20;;;17.60;99.90;;;;;;5094822;28;20281;-83
2021/08/16 03:41:06;;;;;;;18.80;3.47;;;17.70;99.90;;;;;;5088738;28;20197;-83
2021/08/16 03:43:32;;;;;;;15.97;2.90;;;17.70;99.90;;;;;;5091535;28;21065;-84
2021/08/16 03:45:58;;;;;;;16.37;3.00;;;17.70;99.90;;;;;;5076403;28;20344;-85
2021/08/16 03:48:24;;;;;;;16.17;2.70;;;17.80;99.90;;;;;;5080916;28;20191;-83
2021/08/16 03:50:50;;;;;;;21.73;2.90;;;17.90;99.90;;;;;;5076779;28;20206;-83
2021/08/16 03:53:16;;;;;;;17.37;2.80;;;17.90;99.90;;;;;;5086206;28;20167;-84
2021/08/16 03:55:41;;;;;;;14.00;2.90;;;17.90;99.90;;;;;;5074003;28;20190;-84
2021/08/16 03:58:07;;;;;;;14.63;2.73;;;17.90;99.90;;;;;;5087006;28;20280;-82
2021/08/16 04:00:33;;;;;;;21.13;3.00;;;17.80;99.90;;;;;;5093983;28;20265;-84
2021/08/16 04:02:59;;;;;;;21.07;3.93;;;17.90;99.90;;;;;;5076289;28;20183;-83
2021/08/16 04:05:25;;;;;;;14.60;2.83;;;17.90;99.90;;;;;;5076074;28;20181;-83
2021/08/16 04:07:51;;;;;;;12.13;3.47;;;17.90;99.90;;;;;;5073823;28;20219;-82
2021/08/16 04:10:17;;;;;;;14.53;3.10;;;17.90;99.90;;;;;;5078066;28;20170;-83
2021/08/16 04:12:44;;;;;;;11.87;2.53;;;17.90;99.90;;;;;;5076045;28;20611;-83
2021/08/16 04:15:15;;;;;;;15.00;3.20;;;18.00;99.90;;;;;;5070655;28;20175;-83
2021/08/16 04:17:42;;;;;;;19.90;3.43;;;18.00;99.90;;;;;;5065265;28;20638;-83
2021/08/16 04:20:10;;;;;;;15.37;2.90;;;18.00;99.90;;;;;;5106091;28;20174;-83
2021/08/16 04:22:36;;;;;;;15.57;3.50;;;18.00;99.90;;;;;;5104644;28;20207;-83
2021/08/16 04:25:09;;;;;;;17.97;3.27;;;18.10;99.90;;;;;;5090477;28;20179;-82
2021/08/16 04:27:35;;;;;;;11.10;2.90;;;18.10;99.90;;;;;;5067731;28;20197;-84
2021/08/16 04:30:01;;;;;;;18.20;3.00;;;18.10;99.90;;;;;;5090147;28;20270;-81
2021/08/16 04:32:28;;;;;;;19.60;3.33;;;18.00;99.90;;;;;;5092632;28;20217;-84
2021/08/16 04:34:53;;;;;;;18.97;3.33;;;18.00;99.90;;;;;;5087884;28;20167;-84
2021/08/16 04:37:19;;;;;;;20.33;3.53;;;18.10;99.90;;;;;;5092045;28;20179;-84
2021/08/16 04:39:45;;;;;;;16.63;3.00;;;18.10;99.90;;;;;;5075816;28;20189;-84
2021/08/16 04:42:10;;;;;;;19.87;3.33;;;18.00;99.90;;;;;;5091632;28;20205;-81
2021/08/16 04:44:36;;;;;;;18.80;3.03;;;18.10;99.90;;;;;;5089439;28;20190;-83
2021/08/16 04:47:02;;;;;;;13.83;3.50;;;18.00;99.90;;;;;;5067683;28;20561;-83
2021/08/16 04:49:28;;;;;;;13.53;2.97;;;18.10;99.90;;;;;;5085531;28;20183;-84
2021/08/16 04:51:54;;;;;;;17.87;3.10;;;18.00;99.90;;;;;;5074705;28;20232;-84
2021/08/16 04:54:19;;;;;;;19.33;3.30;;;18.10;99.90;;;;;;5078909;28;20186;-81
2021/08/16 04:56:49;;;;;;;15.50;3.57;;;18.10;99.90;;;;;;5073099;28;20231;-83
2021/08/16 04:59:14;;;;;;;15.63;2.90;;;18.20;99.90;;;;;;5076332;28;20182;-83
2021/08/16 05:01:41;;;;;;;21.47;3.73;;;18.30;99.90;;;;;;5068339;28;20783;-83
2021/08/16 05:04:07;;;;;;;15.07;2.90;;;18.30;99.90;;;;;;5074434;28;20178;-83
2021/08/16 05:06:33;;;;;;;15.33;3.43;;;18.40;99.90;;;;;;5089646;28;20217;-83
2021/08/16 05:09:00;;;;;;;16.47;3.60;;;18.30;99.90;;;;;;5087211;28;20193;-82
2021/08/16 05:11:26;;;;;;;14.70;3.37;;;18.30;99.90;;;;;;5074405;28;20676;-83
2021/08/16 05:13:52;;;;;;;15.30;3.00;;;18.30;99.90;;;;;;5070184;28;20170;-84
2021/08/16 05:16:25;;;;;;;16.23;3.47;;;18.40;99.90;;;;;;5079852;28;20230;-85
2021/08/16 05:18:52;;;;;;;21.17;3.63;;;18.40;99.90;;;;;;5093129;28;20195;-83
2021/08/16 05:21:18;;;;;;;13.47;3.27;;;18.50;99.90;;;;;;5082172;28;20662;-83
2021/08/16 05:23:44;;;;;;;14.90;3.57;;;18.40;99.90;;;;;;5090988;28;20313;-83
2021/08/16 05:26:10;;;;;;;14.20;3.17;;;18.40;99.90;;;;;;5089267;28;20266;-83
2021/08/16 05:28:36;;;;;;;11.93;3.23;;;18.40;99.90;;;;;;5095287;28;20536;-82
2021/08/16 05:31:01;;;;;;;16.70;3.40;;;18.40;99.90;;;;;;5076580;28;20209;-82
2021/08/16 05:33:27;;;;;;;14.27;3.33;;;18.50;99.90;;;;;;5072182;28;20182;-81
2021/08/16 05:35:54;;;;;;;16.97;4.00;;;18.60;99.90;;;;;;5095106;28;20199;-82
2021/08/16 05:38:20;;;;;;;16.13;3.63;;;18.60;99.90;;;;;;5098066;28;20234;-82
2021/08/16 05:40:45;;;;;;;14.40;3.40;;;18.50;99.90;;;;;;5098547;28;20194;-82
2021/08/16 05:43:11;;;;;;;15.17;3.00;;;18.50;99.90;;;;;;5072079;28;20187;-81
2021/08/16 05:45:37;;;;;;;15.20;3.97;;;18.60;99.90;;;;;;5070987;28;20190;-82
2021/08/16 05:48:03;;;;;;;17.87;3.33;;;18.70;99.90;;;;;;5084548;28;20211;-82
2021/08/16 05:50:29;;;;;;;15.47;3.23;;;18.70;99.90;;;;;;5075553;28;20187;-83
2021/08/16 05:52:54;;;;;;;18.53;3.37;;;18.70;99.90;;;;;;5082803;28;20981;-83
2021/08/16 05:55:20;;;;;;;13.70;2.90;;;18.60;99.90;;;;;;5088493;28;20657;-83
2021/08/16 05:57:47;;;;;;;14.53;3.80;;;18.60;99.90;;;;;;5082830;28;20194;-82
2021/08/16 06:00:14;;;;;;;14.17;3.30;;;18.70;99.90;;;;;;5091341;28;20187;-82
2021/08/16 06:02:40;;;;;;;12.10;2.87;;;18.80;99.90;;;;;;5096229;28;20184;-83
2021/08/16 06:05:07;;;;;;;13.70;2.87;;;18.90;99.90;;;;;;5078049;28;20664;-82
2021/08/16 06:07:33;;;;;;;15.87;4.07;;;18.90;99.90;;;;;;5078784;28;20287;-83
2021/08/16 06:09:58;;;;;;;14.23;3.40;;;18.90;99.90;;;;;;5092613;28;20212;-83
2021/08/16 06:12:24;;;;;;;24.23;3.37;;;18.90;99.90;;;;;;5075339;28;20186;-82
2021/08/16 06:14:50;;;;;;;12.13;2.67;;;19.00;99.90;;;;;;5097285;28;20589;-83
2021/08/16 06:17:16;;;;;;;15.63;3.30;;;19.10;99.90;;;;;;5095646;28;20650;-83
2021/08/16 06:19:42;;;;;;;10.23;2.70;;;19.10;99.90;;;;;;5082209;28;20194;-83
2021/08/16 06:22:08;;;;;;;11.50;2.77;;;19.10;99.90;;;;;;5093675;28;20206;-84
2021/08/16 06:24:36;;;;;;;14.90;3.13;;;19.20;99.90;;;;;;5080206;28;20353;-82
2021/08/16 06:27:03;;;;;;;18.67;3.40;;;19.30;99.90;;;;;;5081576;28;20211;-81
2021/08/16 06:29:29;;;;;;;13.20;2.80;;;19.30;99.90;;;;;;5075526;28;20632;-83
2021/08/16 06:31:54;;;;;;;11.30;3.13;;;19.30;99.90;;;;;;5078278;28;20277;-82
2021/08/16 06:34:22;;;;;;;10.00;2.67;;;19.40;99.90;;;;;;5092567;28;20678;-83
2021/08/16 06:36:53;;;;;;;15.63;3.33;;;19.40;99.90;;;;;;5090317;28;20193;-83
2021/08/16 06:39:20;;;;;;;15.27;3.20;;;19.40;99.90;;;;;;5093157;28;20187;-83
2021/08/16 06:41:51;;;;;;;12.77;3.27;;;19.40;99.90;;;;;;5074679;28;20555;-82
2021/08/16 06:44:18;;;;;;;13.23;3.30;;;19.50;99.90;;;;;;5103030;28;20705;-82
2021/08/16 06:46:45;;;;;;;13.87;3.70;;;19.50;99.90;;;;;;5076542;28;20580;-82
2021/08/16 06:49:11;;;;;;;17.83;4.40;;;19.60;99.90;;;;;;5072101;28;20192;-81
2021/08/16 06:51:37;;;;;;;13.27;3.57;;;19.60;99.90;;;;;;5073287;28;20712;-82
2021/08/16 06:54:03;;;;;;;13.37;3.33;;;19.50;99.90;;;;;;5090851;28;20191;-82
2021/08/16 06:56:29;;;;;;;15.50;3.93;;;19.50;99.90;;;;;;5076909;28;20216;-83
2021/08/16 06:58:55;;;;;;;15.07;3.53;;;19.60;99.90;;;;;;5078085;28;20611;-82
2021/08/16 07:01:22;;;;;;;15.23;3.43;;;19.50;99.90;;;;;;5088723;28;20653;-83
2021/08/16 07:03:48;;;;;;;15.93;3.60;;;19.70;99.90;;;;;;5079464;28;20269;-83
2021/08/16 07:06:15;;;;;;;15.97;3.43;;;19.80;99.90;;;;;;5075185;28;20259;-83
2021/08/16 07:08:41;;;;;;;11.43;3.20;;;19.90;99.90;;;;;;5089990;28;20293;-82
2021/08/16 07:11:06;;;;;;;12.40;3.30;;;20.00;99.90;;;;;;5091974;28;20224;-83
2021/08/16 07:13:32;;;;;;;13.90;3.10;;;20.10;99.90;;;;;;5082232;28;20249;-85
2021/08/16 07:15:58;;;;;;;14.67;3.27;;;20.10;99.90;;;;;;5091877;28;20192;-83
2021/08/16 07:18:24;;;;;;;20.03;4.20;;;20.10;99.90;;;;;;5105087;28;20201;-82
2021/08/16 07:20:49;;;;;;;38.23;6.37;;;20.00;99.90;;;;;;5080250;28;20187;-83
2021/08/16 07:23:15;;;;;;;12.93;3.00;;;20.00;99.90;;;;;;5075510;28;20227;-83
2021/08/16 07:25:41;;;;;;;16.20;3.40;;;20.00;99.90;;;;;;5074006;28;20190;-83
2021/08/16 07:28:07;;;;;;;13.43;2.93;;;20.10;99.90;;;;;;5105317;28;20215;-84
2021/08/16 07:30:34;;;;;;;10.03;2.50;;;20.30;99.90;;;;;;5111317;28;20182;-82
2021/08/16 07:33:00;;;;;;;10.73;2.27;;;20.50;99.90;;;;;;5094965;28;20187;-84
2021/08/16 07:35:26;;;;;;;11.50;2.73;;;20.60;99.90;;;;;;5094631;28;20173;-83
2021/08/16 07:37:51;;;;;;;12.83;2.93;;;20.80;99.90;;;;;;5084155;28;20200;-82
2021/08/16 07:40:20;;;;;;;12.43;2.80;;;20.90;99.90;;;;;;5076407;28;20199;-82
2021/08/16 07:42:46;;;;;;;14.53;2.63;;;21.20;99.90;;;;;;5100016;28;20190;-82
2021/08/16 07:45:12;;;;;;;11.10;2.60;;;21.40;99.90;;;;;;5076573;28;20188;-83
2021/08/16 07:47:39;;;;;;;11.03;2.50;;;21.60;99.90;;;;;;5072545;28;20253;-81
2021/08/16 07:50:09;;;;;;;12.73;2.60;;;21.80;99.90;;;;;;5070223;28;20185;-83
2021/08/16 07:52:37;;;;;;;9.87;2.30;;;22.00;99.90;;;;;;5088919;28;20224;-80
2021/08/16 07:55:04;;;;;;;13.90;2.40;;;22.40;99.90;;;;;;5098984;28;20174;-82
2021/08/16 07:57:31;;;;;;;11.83;2.50;;;22.60;99.90;;;;;;5089189;28;20199;-82
2021/08/16 07:59:57;;;;;;;12.37;2.63;;;22.40;99.90;;;;;;5094356;28;20272;-81
2021/08/16 08:02:24;;;;;;;8.60;2.23;;;22.10;99.90;;;;;;5071262;28;20323;-81
2021/08/16 08:04:49;;;;;;;7.13;2.40;;;21.60;99.90;;;;;;5090451;28;20197;-81
2021/08/16 08:07:15;;;;;;;11.10;2.67;;;21.40;99.90;;;;;;5097963;28;20285;-81
2021/08/16 08:09:41;;;;;;;10.20;2.53;;;21.30;99.90;;;;;;5072275;28;20197;-82
2021/08/16 08:12:06;;;;;;;8.67;2.67;;;21.10;99.90;;;;;;5078211;28;20185;-82
2021/08/16 08:14:33;;;;;;;11.57;2.70;;;21.10;99.90;;;;;;5090076;28;20190;-82
2021/08/16 08:16:59;;;;;;;10.80;2.73;;;21.00;99.90;;;;;;5091870;28;20195;-82
2021/08/16 08:19:25;;;;;;;8.93;2.40;;;20.90;99.90;;;;;;5098594;28;20184;-82
2021/08/16 08:21:51;;;;;;;10.17;2.90;;;20.90;99.90;;;;;;5074697;28;20185;-82
2021/08/16 08:24:17;;;;;;;9.87;2.93;;;20.70;99.90;;;;;;5092458;28;20636;-81
2021/08/16 08:26:43;;;;;;;9.10;3.20;;;20.70;99.90;;;;;;5088873;28;20726;-82
2021/08/16 08:29:09;;;;;;;11.77;3.27;;;20.80;99.90;;;;;;5072964;28;20174;-80
2021/08/16 08:31:38;;;;;;;10.67;3.50;;;20.70;99.90;;;;;;5080669;28;20196;-81
2021/08/16 08:34:04;;;;;;;11.77;3.23;;;20.60;99.90;;;;;;5075065;28;20672;-81
2021/08/16 08:36:30;;;;;;;11.53;3.63;;;20.40;99.90;;;;;;5076161;28;20279;-82
2021/08/16 08:38:55;;;;;;;16.67;4.73;;;20.30;99.90;;;;;;5078690;28;20269;-81
2021/08/16 08:41:22;;;;;;;10.77;3.53;;;19.40;99.90;;;;;;5071563;28;20190;-82
2021/08/16 08:43:48;;;;;;;11.17;4.33;;;18.60;99.90;;;;;;5077642;28;20572;-82
2021/08/16 08:46:17;;;;;;;15.17;4.50;;;18.10;99.90;;;;;;5072279;28;20183;-81
2021/08/16 08:48:43;;;;;;;10.47;4.07;;;17.90;99.90;;;;;;5083104;28;20243;-82
2021/08/16 08:51:08;;;;;;;11.67;4.60;;;17.70;99.90;;;;;;5090462;28;20269;-82
2021/08/16 08:53:34;;;;;;;13.33;4.30;;;17.50;99.90;;;;;;5072548;28;20178;-82
2021/08/16 08:56:00;;;;;;;15.73;5.30;;;17.40;99.90;;;;;;5086286;28;20188;-81
2021/08/16 08:58:26;;;;;;;16.00;5.40;;;17.60;99.90;;;;;;5090109;28;20178;-82
2021/08/16 09:00:52;;;;;;;13.07;4.00;;;17.90;99.90;;;;;;5081465;28;20645;-82
2021/08/16 09:03:17;;;;;;;10.33;4.10;;;18.10;99.90;;;;;;5093541;28;20194;-82
2021/08/16 09:06:02;;;;;;;11.87;4.00;;;18.20;99.90;;;;;;5082601;27;20235;-82
2021/08/16 09:08:33;;;;;;;11.40;3.90;;;18.30;99.90;;;;;;5094762;28;20189;-82
2021/08/16 09:11:13;;;;;;;12.83;3.47;;;18.10;99.90;;;;;;5081661;28;20273;-82
2021/08/16 09:13:58;;;;;;;12.23;4.17;;;17.90;99.90;;;;;;5075216;28;20281;-82
2021/08/16 09:16:27;;;;;;;13.80;4.43;;;18.10;99.90;;;;;;5076502;28;20175;-81
2021/08/16 09:18:53;;;;;;;11.80;4.63;;;18.40;99.90;;;;;;5094361;28;20191;-82
2021/08/16 09:21:31;;;;;;;10.87;3.90;;;18.60;99.90;;;;;;5077258;28;20221;-82
2021/08/16 09:23:57;;;;;;;16.30;4.47;;;18.90;99.90;;;;;;5103037;27;20251;-82
2021/08/16 09:26:26;;;;;;;12.17;4.40;;;19.20;99.90;;;;;;5093645;28;20579;-83
2021/08/16 09:28:52;;;;;;;11.27;4.03;;;19.40;99.90;;;;;;5090176;28;20261;-81
2021/08/16 09:31:19;;;;;;;10.70;3.80;;;19.60;99.90;;;;;;5095567;28;20208;-82
2021/08/16 09:33:55;;;;;;;14.23;4.07;;;19.70;99.90;;;;;;5078133;28;20207;-81
2021/08/16 09:36:32;;;;;;;13.80;3.73;;;19.70;99.90;;;;;;5090471;28;20182;-82
2021/08/16 09:38:58;;;;;;;11.20;4.10;;;19.90;99.90;;;;;;5111460;27;20197;-82
2021/08/16 09:41:28;;;;;;;11.80;3.97;;;19.90;99.90;;;;;;5100588;28;20598;-82
2021/08/16 09:44:07;;;;;;;11.30;4.43;;;20.00;99.90;;;;;;5091424;28;20734;-82
2021/08/16 09:46:33;;;;;;;14.27;4.33;;;20.10;99.90;;;;;;5093416;28;20214;-82
2021/08/16 09:49:02;;;;;;;12.57;4.50;;;20.30;99.90;;;;;;5087910;28;20180;-80
2021/08/16 09:51:28;;;;;;;14.87;4.37;;;20.60;99.90;;;;;;5112797;27;20176;-82
2021/08/16 09:53:54;;;;;;;10.97;4.60;;;20.70;99.90;;;;;;5094948;28;20189;-82
2021/08/16 09:56:22;;;;;;;11.77;4.77;;;20.60;99.90;;;;;;5092405;28;20266;-82
2021/08/16 09:58:48;;;;;;;14.33;4.90;;;20.80;99.90;;;;;;5079811;28;20201;-82
2021/08/16 10:01:14;;;;;;;14.70;5.17;;;21.10;99.90;;;;;;5089111;28;20177;-82
2021/08/16 10:03:41;;;;;;;14.57;5.50;;;21.10;99.90;;;;;;5091504;28;20238;-81
2021/08/16 10:06:08;;;;;;;15.87;6.33;;;21.30;99.90;;;;;;5091278;28;20690;-82
2021/08/16 10:08:49;;;;;;;12.83;6.40;;;21.10;99.90;;;;;;5076886;28;20206;-82
2021/08/16 10:11:18;;;;;;;17.07;7.60;;;21.30;99.90;;;;;;5095069;28;20220;-82
2021/08/16 10:13:50;;;;;;;15.03;7.17;;;21.90;99.90;;;;;;5096421;28;20264;-83
2021/08/16 10:16:28;;;;;;;20.70;7.73;;;21.60;99.90;;;;;;5105591;28;20200;-81
2021/08/16 10:19:02;;;;;;;20.27;8.80;;;22.40;99.90;;;;;;5074806;28;20830;-81
2021/08/16 10:21:29;;;;;;;18.47;8.07;;;23.00;99.90;;;;;;5079157;28;20192;-81
2021/08/16 10:23:56;;;;;;;22.67;9.07;;;23.40;99.90;;;;;;5090464;28;20300;-81
2021/08/16 10:26:36;;;;;;;16.77;9.03;;;23.60;99.90;;;;;;5107967;28;20270;-81
2021/08/16 10:29:04;;;;;;;16.97;8.80;;;23.90;99.90;;;;;;5077098;28;20182;-82
2021/08/16 10:31:36;;;;;;;21.30;11.33;;;24.00;99.90;;;;;;5076152;28;20553;-81
2021/08/16 10:34:02;;;;;;;18.43;11.20;;;23.60;99.90;;;;;;5076350;28;20190;-81
2021/08/16 10:36:28;;;;;;;22.43;12.77;;;23.20;99.90;;;;;;5089028;28;20189;-81
2021/08/16 10:38:57;;;;;;;22.07;12.80;;;22.30;99.90;;;;;;5079410;28;20213;-80
2021/08/16 10:41:31;;;;;;;23.80;13.23;;;22.00;99.90;;;;;;5094394;28;20201;-81
2021/08/16 10:44:08;;;;;;;24.00;14.00;;;22.20;99.90;;;;;;5093608;28;20182;-81
2021/08/16 10:46:34;;;;;;;24.70;14.03;;;22.20;99.90;;;;;;5076519;28;20700;-81
2021/08/16 10:49:06;;;;;;;28.47;14.33;;;22.00;99.90;;;;;;5069685;28;20217;-81
2021/08/16 10:51:47;;;;;;;24.77;14.33;;;21.80;99.90;;;;;;5090567;28;20181;-82
2021/08/16 10:54:30;;;;;;;28.57;15.20;;;22.20;99.90;;;;;;5085786;28;20662;-81
2021/08/16 10:56:57;;;;;;;31.87;15.63;;;22.50;99.90;;;;;;5089561;28;20185;-81
2021/08/16 10:59:26;;;;;;;26.80;16.77;;;22.60;99.90;;;;;;5093668;28;20173;-80
2021/08/16 11:01:52;;;;;;;29.70;16.07;;;22.30;99.90;;;;;;5092025;28;20195;-81
2021/08/16 11:04:35;;;;;;;26.17;16.77;;;22.30;99.90;;;;;;5076116;28;20201;-81
2021/08/16 11:07:02;;;;;;;29.57;17.03;;;23.10;99.90;;;;;;5075993;27;20220;-82
2021/08/16 11:09:30;;;;;;;28.80;16.57;;;23.70;99.90;;;;;;5095195;28;20193;-80
2021/08/16 11:12:05;;;;;;;27.80;18.33;;;23.80;99.90;;;;;;5090435;28;20239;-82
2021/08/16 11:14:33;;;;;;;27.57;18.17;;;23.40;99.90;;;;;;5070586;28;20197;-81
2021/08/16 11:16:59;;;;;;;31.47;19.13;;;22.90;99.90;;;;;;5089516;27;20182;-81
2021/08/16 11:19:26;;;;;;;31.60;19.03;;;22.50;99.90;;;;;;5076320;28;20563;-82
2021/08/16 11:22:02;;;;;;;31.03;19.30;;;21.70;99.90;;;;;;5076456;28;20217;-81
2021/08/16 11:24:34;;;;;;;31.80;19.23;;;21.50;99.90;;;;;;5105829;27;20283;-81
2021/08/16 11:27:05;;;;;;;31.73;19.77;;;21.30;99.90;;;;;;5092329;28;20673;-80
2021/08/16 11:29:31;;;;;;;31.90;20.57;;;21.10;99.90;;;;;;5089176;28;20278;-82
2021/08/16 11:32:03;;;;;;;33.70;21.47;;;20.90;99.90;;;;;;5073494;28;20195;-82
2021/08/16 11:34:31;;;;;;;35.57;21.07;;;20.90;99.90;;;;;;5075606;28;20263;-83
2021/08/16 11:36:57;;;;;;;33.43;21.37;;;21.20;99.90;;;;;;5076521;28;20181;-83
2021/08/16 11:39:33;;;;;;;35.90;20.77;;;21.90;99.90;;;;;;5092230;28;20661;-82
2021/08/16 11:42:03;;;;;;;34.00;21.53;;;22.20;99.90;;;;;;5074478;28;20181;-83
2021/08/16 11:44:31;;;;;;;35.87;21.67;;;22.30;99.90;;;;;;5090351;28;20176;-82
2021/08/16 11:47:01;;;;;;;37.37;22.07;;;22.00;99.90;;;;;;5076653;27;20236;-82
2021/08/16 11:49:31;;;;;;;34.63;22.30;;;21.70;99.90;;;;;;5077738;28;20205;-84
2021/08/16 11:51:57;;;;;;;38.27;22.33;;;21.50;99.90;;;;;;5079931;28;20188;-83
2021/08/16 11:54:34;;;;;;;42.43;24.57;;;21.30;99.90;;;;;;5094090;27;20195;-82
2021/08/16 11:57:02;;;;;;;37.47;23.40;;;21.20;99.90;;;;;;5096770;28;20213;-81
2021/08/16 11:59:28;;;;;;;37.80;23.13;;;21.10;99.90;;;;;;5091165;28;20203;-82
2021/08/16 12:01:57;;;;;;;41.33;21.93;;;20.80;99.90;;;;;;5083360;28;20181;-83
2021/08/16 12:04:24;;;;;;;36.67;21.67;;;20.60;99.90;;;;;;5069689;28;20192;-81
2021/08/16 12:06:52;;;;;;;34.93;22.97;;;20.10;99.90;;;;;;5088637;28;20240;-82
2021/08/16 12:09:18;;;;;;;42.53;23.20;;;20.10;99.90;;;;;;5066768;28;20187;-83
2021/08/16 12:11:44;;;;;;;41.00;23.63;;;20.30;99.90;;;;;;5087519;28;20180;-82
2021/08/16 12:14:10;;;;;;;36.17;21.77;;;20.50;99.90;;;;;;5088079;28;20639;-83
2021/08/16 12:16:38;;;;;;;33.87;20.10;;;20.40;99.90;;;;;;5094653;28;20280;-81
2021/08/16 12:19:05;;;;;;;31.93;19.63;;;20.40;99.90;;;;;;5088450;28;20239;-82
2021/08/16 12:21:31;;;;;;;34.60;19.93;;;20.20;99.90;;;;;;5094928;28;20193;-83
2021/08/16 12:24:00;;;;;;;38.83;19.33;;;20.00;99.90;;;;;;5074293;28;20247;-82
2021/08/16 12:26:39;;;;;;;31.43;17.97;;;20.20;99.90;;;;;;5091719;28;21665;-82
2021/08/16 12:29:19;;;;;;;31.93;18.30;;;20.10;99.90;;;;;;5105807;28;20306;-82
2021/08/16 12:31:45;;;;;;;29.97;18.40;;;20.20;99.90;;;;;;5099724;28;20185;-82
2021/08/16 12:34:13;;;;;;;31.53;19.17;;;20.10;99.90;;;;;;5088040;28;20262;-82
2021/08/16 12:36:41;;;;;;;35.33;18.90;;;20.30;99.90;;;;;;5084208;28;20189;-82